createdAt,value
2024-03-11T00:00:33.663Z,7.20
2024-03-11T00:03:21.420Z,8.50
2024-03-11T00:05:49.341Z,7.90
2024-03-11T00:08:17.252Z,8.30
2024-03-11T00:10:45.006Z,7.90
2024-03-11T00:13:12.676Z,7.20
2024-03-11T00:15:40.435Z,8.20
2024-03-11T00:18:08.200Z,7.30
2024-03-11T00:20:35.872Z,8.20
2024-03-11T00:23:03.652Z,7.80
2024-03-11T00:25:31.328Z,7.90
2024-03-11T00:27:58.998Z,7.40
2024-03-11T00:30:26.581Z,7.10
2024-03-11T00:32:54.597Z,7.50
2024-03-11T00:35:22.568Z,7.30
2024-03-11T00:37:50.215Z,7.40
2024-03-11T00:40:18.112Z,6.90
2024-03-11T00:42:45.974Z,6.80
2024-03-11T00:45:13.866Z,6.50
2024-03-11T00:47:43.420Z,6.70
2024-03-11T00:52:41.623Z,5.70
2024-03-11T00:55:10.876Z,6.40
2024-03-11T00:57:39.645Z,6.80
2024-03-11T01:00:09.277Z,6.50
2024-03-11T01:02:37.121Z,8.20
2024-03-11T01:05:06.114Z,7.40
2024-03-11T01:07:44.295Z,7.40
2024-03-11T01:10:16.343Z,6.20
2024-03-11T01:12:44.726Z,5.90
2024-03-11T01:15:13.022Z,5.50
2024-03-11T01:17:41.949Z,5.70
2024-03-11T01:20:11.004Z,6.50
2024-03-11T01:22:39.013Z,6.40
2024-03-11T01:25:07.447Z,7.10
2024-03-11T01:27:35.205Z,6.50
2024-03-11T01:30:03.064Z,6.50
2024-03-11T01:32:31.442Z,6.90
2024-03-11T01:34:59.416Z,6.20
2024-03-11T01:37:27.049Z,5.80
2024-03-11T01:39:54.764Z,5.60
2024-03-11T01:42:23.043Z,6.10
2024-03-11T01:44:52.254Z,5.90
2024-03-11T01:47:22.895Z,6.20
2024-03-11T01:49:54.130Z,5.80
2024-03-11T01:52:27.241Z,6.50
2024-03-11T01:54:56.797Z,6.00
2024-03-11T01:57:28.448Z,5.80
2024-03-11T01:59:56.105Z,5.50
2024-03-11T02:02:23.847Z,5.00
2024-03-11T02:04:52.535Z,6.00
2024-03-11T02:07:22.332Z,6.10
2024-03-11T02:09:49.960Z,5.70
2024-03-11T02:12:17.669Z,6.50
2024-03-11T02:14:46.234Z,6.10
2024-03-11T02:17:16.247Z,4.70
2024-03-11T02:19:43.999Z,5.20
2024-03-11T02:22:11.671Z,6.40
2024-03-11T02:24:39.288Z,5.30
2024-03-11T02:27:07.033Z,4.90
2024-03-11T02:29:34.769Z,5.40
2024-03-11T02:32:02.734Z,5.10
2024-03-11T02:34:30.831Z,5.70
2024-03-11T02:36:58.448Z,5.70
2024-03-11T02:39:26.218Z,4.80
2024-03-11T02:41:54.065Z,5.20
2024-03-11T02:44:21.803Z,5.10
2024-03-11T02:46:49.457Z,5.90
2024-03-11T02:49:17.091Z,6.20
2024-03-11T02:51:44.767Z,6.40
2024-03-11T02:54:12.508Z,5.50
2024-03-11T02:56:40.187Z,4.90
2024-03-11T02:59:08.004Z,5.00
2024-03-11T03:01:35.801Z,5.10
2024-03-11T03:04:03.466Z,5.80
2024-03-11T03:06:31.148Z,5.60
2024-03-11T03:08:58.808Z,5.70
2024-03-11T03:11:26.550Z,5.50
2024-03-11T03:13:54.322Z,5.20
2024-03-11T03:16:22.087Z,5.70
2024-03-11T03:18:49.773Z,4.70
2024-03-11T03:21:17.415Z,5.20
2024-03-11T03:23:45.175Z,4.80
2024-03-11T03:26:13.026Z,4.90
2024-03-11T03:28:40.716Z,5.00
2024-03-11T03:31:08.678Z,5.50
2024-03-11T03:33:36.365Z,5.30
2024-03-11T03:36:04.523Z,6.00
2024-03-11T03:38:32.269Z,5.20
2024-03-11T03:41:00.051Z,5.30
2024-03-11T03:43:27.669Z,6.60
2024-03-11T03:45:55.326Z,5.60
2024-03-11T03:48:23.401Z,5.30
2024-03-11T03:50:51.228Z,5.50
2024-03-11T03:53:19.134Z,6.10
2024-03-11T03:55:46.957Z,5.50
2024-03-11T03:58:14.607Z,5.60
2024-03-11T04:00:42.257Z,5.80
2024-03-11T04:03:09.917Z,6.50
2024-03-11T04:05:37.824Z,6.20
2024-03-11T04:08:05.985Z,5.60
2024-03-11T04:10:33.708Z,5.00
2024-03-11T04:13:01.414Z,6.20
2024-03-11T04:15:29.023Z,5.60
2024-03-11T04:17:56.962Z,6.20
2024-03-11T04:20:25.504Z,6.30
2024-03-11T04:22:53.332Z,6.80
2024-03-11T04:25:23.714Z,6.80
2024-03-11T04:27:51.416Z,7.10
2024-03-11T04:30:20.578Z,6.20
2024-03-11T04:32:49.635Z,6.30
2024-03-11T04:35:17.374Z,7.50
2024-03-11T04:37:45.057Z,6.30
2024-03-11T04:40:12.856Z,6.60
2024-03-11T04:42:40.461Z,7.50
2024-03-11T04:45:08.368Z,7.00
2024-03-11T04:47:36.115Z,6.60
2024-03-11T04:50:04.480Z,7.30
2024-03-11T04:52:32.122Z,7.60
2024-03-11T04:54:59.801Z,7.20
2024-03-11T04:57:27.426Z,7.60
2024-03-11T04:59:55.082Z,7.70
2024-03-11T05:02:23.901Z,7.30
2024-03-11T05:04:52.284Z,7.70
2024-03-11T05:07:19.896Z,7.50
2024-03-11T05:09:47.596Z,6.70
2024-03-11T05:12:15.300Z,7.80
2024-03-11T05:14:43.081Z,7.90
2024-03-11T05:17:10.783Z,7.90
2024-03-11T05:19:38.458Z,7.80
2024-03-11T05:22:06.467Z,8.40
2024-03-11T05:24:34.280Z,8.00
2024-03-11T05:27:01.978Z,10.00
2024-03-11T05:29:29.647Z,9.30
2024-03-11T05:31:57.271Z,8.10
2024-03-11T05:34:24.975Z,8.20
2024-03-11T05:36:53.171Z,8.30
2024-03-11T05:39:21.127Z,8.20
2024-03-11T05:41:48.804Z,8.20
2024-03-11T05:44:16.542Z,7.70
2024-03-11T05:46:44.188Z,7.30
2024-03-11T05:49:14.938Z,7.00
2024-03-11T05:51:42.851Z,9.10
2024-03-11T05:54:11.989Z,8.50
2024-03-11T05:56:39.656Z,8.70
2024-03-11T05:59:07.459Z,9.40
2024-03-11T06:01:35.146Z,9.40
2024-03-11T06:04:02.854Z,10.40
2024-03-11T06:06:30.508Z,8.60
2024-03-11T06:08:58.424Z,7.90
2024-03-11T06:11:26.106Z,8.10
2024-03-11T06:13:53.777Z,9.10
2024-03-11T06:16:22.389Z,8.10
2024-03-11T06:18:50.089Z,8.40
2024-03-11T06:21:17.717Z,7.90
2024-03-11T06:23:45.554Z,8.00
2024-03-11T06:26:13.265Z,8.60
2024-03-11T06:28:41.013Z,8.60
2024-03-11T06:31:08.667Z,8.10
2024-03-11T06:33:36.484Z,7.70
2024-03-11T06:36:04.505Z,7.80
2024-03-11T06:38:32.372Z,8.30
2024-03-11T06:41:00.291Z,7.20
2024-03-11T06:43:28.062Z,8.20
2024-03-11T06:45:56.490Z,7.80
2024-03-11T06:48:24.250Z,8.60
2024-03-11T06:50:52.005Z,8.20
2024-03-11T06:53:19.689Z,7.60
2024-03-11T06:55:47.469Z,8.00
2024-03-11T06:58:15.105Z,7.50
2024-03-11T07:00:42.906Z,8.20
2024-03-11T07:03:10.717Z,7.30
2024-03-11T07:05:38.947Z,8.00
2024-03-11T07:08:07.108Z,8.10
2024-03-11T07:10:34.780Z,7.30
2024-03-11T07:13:02.486Z,7.40
2024-03-11T07:15:30.129Z,6.70
2024-03-11T07:17:57.883Z,7.50
2024-03-11T07:20:25.543Z,7.20
2024-03-11T07:22:53.966Z,7.30
2024-03-11T07:25:21.875Z,7.50
2024-03-11T07:27:49.604Z,7.30
2024-03-11T07:30:17.852Z,7.50
2024-03-11T07:32:45.563Z,7.20
2024-03-11T07:35:13.222Z,7.40
2024-03-11T07:37:41.062Z,6.90
2024-03-11T07:40:09.117Z,7.50
2024-03-11T07:42:36.776Z,7.60
2024-03-11T07:45:04.957Z,8.00
2024-03-11T07:47:32.597Z,7.60
2024-03-11T07:50:00.236Z,7.90
2024-03-11T07:52:27.941Z,7.20
2024-03-11T07:54:55.538Z,7.30
2024-03-11T07:57:23.265Z,7.00
2024-03-11T07:59:50.971Z,7.80
2024-03-11T08:02:18.689Z,7.10
2024-03-11T08:04:47.713Z,8.30
2024-03-11T08:07:16.765Z,7.70
2024-03-11T08:09:44.506Z,7.10
2024-03-11T08:12:12.205Z,9.70
2024-03-11T08:14:39.883Z,7.80
2024-03-11T08:17:07.823Z,8.50
2024-03-11T08:19:35.622Z,8.40
2024-03-11T08:22:03.258Z,8.80
2024-03-11T08:24:30.896Z,9.20
2024-03-11T08:26:58.551Z,11.60
2024-03-11T08:29:26.269Z,9.10
2024-03-11T08:31:53.931Z,8.60
2024-03-11T08:34:21.629Z,8.00
2024-03-11T08:36:49.554Z,7.30
2024-03-11T08:39:17.250Z,7.20
2024-03-11T08:41:44.968Z,7.40
2024-03-11T08:44:12.746Z,7.20
2024-03-11T08:46:40.485Z,7.80
2024-03-11T08:49:08.378Z,8.30
2024-03-11T08:51:36.030Z,7.00
2024-03-11T08:54:03.758Z,8.60
2024-03-11T08:56:31.460Z,8.20
2024-03-11T08:58:59.117Z,8.00
2024-03-11T09:01:26.910Z,8.40
2024-03-11T09:03:54.570Z,8.90
2024-03-11T09:06:23.080Z,8.60
2024-03-11T09:08:53.409Z,8.10
2024-03-11T09:11:21.551Z,9.20
2024-03-11T09:13:49.235Z,8.40
2024-03-11T09:16:16.909Z,9.30
2024-03-11T09:18:44.495Z,8.00
2024-03-11T09:21:12.255Z,9.10
2024-03-11T09:23:39.943Z,15.80
2024-03-11T09:26:07.844Z,9.70
2024-03-11T09:28:35.505Z,8.90
2024-03-11T09:31:03.241Z,8.60
2024-03-11T09:33:31.130Z,9.50
2024-03-11T09:35:58.822Z,10.40
2024-03-11T09:38:26.502Z,9.00
2024-03-11T09:40:54.447Z,8.60
2024-03-11T09:43:22.719Z,8.60
2024-03-11T09:45:50.456Z,8.50
2024-03-11T09:48:18.558Z,8.60
2024-03-11T09:50:47.459Z,7.60
2024-03-11T09:53:16.098Z,7.50
2024-03-11T09:55:43.767Z,8.50
2024-03-11T09:58:16.142Z,8.50
2024-03-11T10:00:52.701Z,7.70
2024-03-11T10:03:25.689Z,7.90
2024-03-11T10:05:57.873Z,7.10
2024-03-11T10:08:25.581Z,7.70
2024-03-11T10:11:10.653Z,7.20
2024-03-11T10:13:38.410Z,7.00
2024-03-11T10:16:14.019Z,6.70
2024-03-11T10:18:42.119Z,6.20
2024-03-11T10:21:09.819Z,6.20
2024-03-11T10:23:37.890Z,6.50
2024-03-11T10:26:13.484Z,6.50
2024-03-11T10:28:41.128Z,6.40
2024-03-11T10:31:26.253Z,6.80
2024-03-11T10:33:54.260Z,6.50
2024-03-11T10:36:22.768Z,6.80
2024-03-11T10:38:52.339Z,6.50
2024-03-11T10:43:49.896Z,6.10
2024-03-11T10:46:21.943Z,5.80
2024-03-11T10:48:50.272Z,6.40
2024-03-11T10:51:20.454Z,6.70
2024-03-11T10:53:53.004Z,6.70
2024-03-11T10:56:21.438Z,6.00
2024-03-11T10:58:54.644Z,6.90
2024-03-11T11:01:32.462Z,6.40
2024-03-11T11:04:07.694Z,6.70
2024-03-11T11:06:35.937Z,5.80
2024-03-11T11:09:03.955Z,12.70
2024-03-11T11:11:31.731Z,7.00
2024-03-11T11:13:59.421Z,5.90
2024-03-11T11:16:27.420Z,6.40
2024-03-11T11:18:56.083Z,6.10
2024-03-11T11:21:24.451Z,5.40
2024-03-11T11:23:52.232Z,6.70
2024-03-11T11:26:41.865Z,6.50
2024-03-11T11:29:09.758Z,8.80
2024-03-11T11:31:37.395Z,5.90
2024-03-11T11:34:05.283Z,5.90
2024-03-11T11:36:33.014Z,6.30
2024-03-11T11:39:12.757Z,6.70
2024-03-11T11:41:45.747Z,6.70
2024-03-11T11:44:29.891Z,7.20
2024-03-11T11:47:08.979Z,5.80
2024-03-11T11:49:37.121Z,6.80
2024-03-11T11:52:06.233Z,7.60
2024-03-11T11:54:36.938Z,7.00
2024-03-11T11:57:16.802Z,6.30
2024-03-11T11:59:58.313Z,7.10
2024-03-11T12:02:30.131Z,7.00
2024-03-11T12:05:03.040Z,6.70
2024-03-11T12:07:33.966Z,8.30
2024-03-11T12:10:02.431Z,8.30
2024-03-11T12:12:33.094Z,9.00
2024-03-11T12:15:03.738Z,6.80
2024-03-11T12:17:33.713Z,7.60
2024-03-11T12:20:11.770Z,6.40
2024-03-11T12:22:39.485Z,6.50
2024-03-11T12:25:09.351Z,8.20
2024-03-11T12:30:05.296Z,6.50
2024-03-11T12:32:33.016Z,6.30
2024-03-11T12:35:01.267Z,6.90
2024-03-11T12:37:32.318Z,7.20
2024-03-11T12:40:00.843Z,6.50
2024-03-11T12:42:28.707Z,6.80
2024-03-11T12:44:56.746Z,6.90
2024-03-11T12:47:24.450Z,6.90
2024-03-11T12:49:52.141Z,7.40
2024-03-11T12:52:19.992Z,7.00
2024-03-11T12:54:47.781Z,6.50
2024-03-11T12:57:19.669Z,6.70
2024-03-11T13:00:01.418Z,5.70
2024-03-11T13:02:29.416Z,6.60
2024-03-11T13:05:11.132Z,7.30
2024-03-11T13:07:38.942Z,6.60
2024-03-11T13:10:07.196Z,7.10
2024-03-11T13:12:34.986Z,6.50
2024-03-11T13:15:02.694Z,7.60
2024-03-11T13:17:30.356Z,6.00
2024-03-11T13:19:58.035Z,7.70
2024-03-11T13:22:25.678Z,7.10
2024-03-11T13:24:57.022Z,6.20
2024-03-11T13:27:24.771Z,7.40
2024-03-11T13:29:52.375Z,7.90
2024-03-11T13:32:20.304Z,7.50
2024-03-11T13:34:47.960Z,8.70
2024-03-11T13:37:16.004Z,7.80
2024-03-11T13:39:43.884Z,7.60
2024-03-11T13:42:13.040Z,6.80
2024-03-11T13:44:42.113Z,6.90
2024-03-11T13:47:12.805Z,7.70
2024-03-11T13:49:42.798Z,11.60
2024-03-11T13:52:11.101Z,7.50
2024-03-11T13:54:39.453Z,7.30
2024-03-11T13:57:07.400Z,7.90
2024-03-11T13:59:35.294Z,8.50
2024-03-11T14:02:03.141Z,7.80
2024-03-11T14:04:30.911Z,8.00
2024-03-11T14:06:58.729Z,8.00
2024-03-11T14:09:26.518Z,9.60
2024-03-11T14:11:54.480Z,7.90
2024-03-11T14:14:23.097Z,8.40
2024-03-11T14:16:50.927Z,7.90
2024-03-11T14:19:18.614Z,9.00
2024-03-11T14:21:46.852Z,9.60
2024-03-11T14:24:15.048Z,8.90
2024-03-11T14:26:43.439Z,8.30
2024-03-11T14:29:11.608Z,8.40
2024-03-11T14:31:39.698Z,9.40
2024-03-11T14:34:07.598Z,8.60
2024-03-11T14:36:35.524Z,10.50
2024-03-11T14:39:03.703Z,9.70
2024-03-11T14:41:34.851Z,9.10
2024-03-11T14:44:02.466Z,8.10
2024-03-11T14:46:32.414Z,10.00
2024-03-11T14:49:00.338Z,10.90
2024-03-11T14:51:28.044Z,9.50
2024-03-11T14:53:55.907Z,10.10
2024-03-11T14:56:23.563Z,11.70
2024-03-11T14:58:51.267Z,15.20
2024-03-11T15:01:18.971Z,12.90
2024-03-11T15:03:47.806Z,11.60
2024-03-11T15:06:15.650Z,11.50
2024-03-11T15:08:43.416Z,12.60
2024-03-11T15:11:11.895Z,11.30
2024-03-11T15:13:39.544Z,11.20
2024-03-11T15:16:08.333Z,13.20
2024-03-11T15:18:36.164Z,13.10
2024-03-11T15:21:03.985Z,12.90
2024-03-11T15:23:31.654Z,11.30
2024-03-11T15:25:59.356Z,12.70
2024-03-11T15:28:27.187Z,11.20
2024-03-11T15:30:55.614Z,11.20
2024-03-11T15:33:23.979Z,12.80
2024-03-11T15:35:52.237Z,12.20
2024-03-11T15:38:21.865Z,11.60
2024-03-11T15:40:51.408Z,12.00
2024-03-11T15:43:19.663Z,10.50
2024-03-11T15:45:48.097Z,10.00
2024-03-11T15:48:16.687Z,12.30
2024-03-11T15:50:44.569Z,12.60
2024-03-11T15:53:12.210Z,12.50
2024-03-11T15:55:39.971Z,11.40
2024-03-11T15:58:07.907Z,12.00
2024-03-11T16:00:35.607Z,13.00
2024-03-11T16:03:05.055Z,12.00
2024-03-11T16:05:32.709Z,12.70
2024-03-11T16:08:00.368Z,13.60
2024-03-11T16:10:29.922Z,12.50
2024-03-11T16:12:57.600Z,14.60
2024-03-11T16:15:26.388Z,15.90
2024-03-11T16:17:54.845Z,17.20
2024-03-11T16:20:22.750Z,14.50
2024-03-11T16:22:51.803Z,15.40
2024-03-11T16:25:20.256Z,15.70
2024-03-11T16:27:49.179Z,18.30
2024-03-11T16:30:18.124Z,20.10
2024-03-11T16:32:45.834Z,22.40
2024-03-11T16:35:13.753Z,18.60
2024-03-11T16:37:42.673Z,19.20
2024-03-11T16:40:11.151Z,23.40
2024-03-11T16:42:40.405Z,25.30
2024-03-11T16:45:09.327Z,32.80
2024-03-11T16:47:40.092Z,23.40
2024-03-11T16:50:10.119Z,19.90
2024-03-11T16:52:37.748Z,18.00
2024-03-11T16:55:10.669Z,18.50
2024-03-11T16:57:39.459Z,18.10
2024-03-11T17:00:11.683Z,17.70
2024-03-11T17:02:45.753Z,19.90
2024-03-11T17:05:14.271Z,20.00
2024-03-11T17:07:44.859Z,20.40
2024-03-11T17:10:14.142Z,20.30
2024-03-11T17:12:43.770Z,19.40
2024-03-11T17:15:16.269Z,19.90
2024-03-11T17:17:48.433Z,19.00
2024-03-11T17:20:17.809Z,20.30
2024-03-11T17:22:45.543Z,20.00
2024-03-11T17:25:13.268Z,21.70
2024-03-11T17:27:41.369Z,20.30
2024-03-11T17:30:09.648Z,21.00
2024-03-11T17:32:41.601Z,21.00
2024-03-11T17:35:11.490Z,20.20
2024-03-11T17:37:40.348Z,20.60
2024-03-11T17:40:12.622Z,20.00
2024-03-11T17:42:40.782Z,20.20
2024-03-11T17:45:12.109Z,21.00
2024-03-11T17:47:39.789Z,20.30
2024-03-11T17:50:09.429Z,22.30
2024-03-11T17:52:47.877Z,18.80
2024-03-11T17:55:16.697Z,20.60
2024-03-11T17:57:46.543Z,17.80
2024-03-11T18:00:15.745Z,16.70
2024-03-11T18:02:44.668Z,16.00
2024-03-11T18:05:12.515Z,16.30
2024-03-11T18:07:40.193Z,17.50
2024-03-11T18:10:31.352Z,18.40
2024-03-11T18:13:04.233Z,16.70
2024-03-11T18:15:42.242Z,18.70
2024-03-11T18:18:10.163Z,18.90
2024-03-11T18:20:37.835Z,20.50
2024-03-11T18:23:05.600Z,21.70
2024-03-11T18:25:33.245Z,18.10
2024-03-11T18:28:02.129Z,22.20
2024-03-11T18:30:30.158Z,25.40
2024-03-11T18:32:58.791Z,28.10
2024-03-11T18:35:27.737Z,28.20
2024-03-11T18:37:57.327Z,24.30
2024-03-11T18:40:25.323Z,22.40
2024-03-11T18:42:54.555Z,22.00
2024-03-11T18:45:23.355Z,21.40
2024-03-11T18:47:51.099Z,22.40
2024-03-11T18:50:20.658Z,23.90
2024-03-11T18:52:58.848Z,24.70
2024-03-11T18:55:29.442Z,21.50
2024-03-11T18:57:57.210Z,20.30
2024-03-11T19:00:25.040Z,19.90
2024-03-11T19:02:54.406Z,17.50
2024-03-11T19:05:22.344Z,17.40
2024-03-11T19:07:50.088Z,19.80
2024-03-11T19:10:18.095Z,19.10
2024-03-11T19:12:47.207Z,19.20
2024-03-11T19:15:19.316Z,18.90
2024-03-11T19:17:47.415Z,20.00
2024-03-11T19:20:16.905Z,19.50
2024-03-11T19:22:45.849Z,19.70
2024-03-11T19:25:15.252Z,19.20
2024-03-11T19:27:42.914Z,19.80
2024-03-11T19:30:11.015Z,18.60
2024-03-11T19:32:43.204Z,20.60
2024-03-11T19:35:12.745Z,20.50
2024-03-11T19:38:01.942Z,20.80
2024-03-11T19:40:41.461Z,19.30
2024-03-11T19:43:27.992Z,20.20
2024-03-11T19:46:33.229Z,18.70
2024-03-11T19:49:04.051Z,19.40
2024-03-11T19:52:02.829Z,19.00
2024-03-11T19:54:52.270Z,20.80
2024-03-11T19:57:49.606Z,19.30
2024-03-11T20:00:39.450Z,18.20
2024-03-11T20:03:43.212Z,17.70
2024-03-11T20:06:35.598Z,18.80
2024-03-11T20:09:25.133Z,20.60
2024-03-11T20:12:26.947Z,19.00
2024-03-11T20:14:59.166Z,21.00
2024-03-11T20:17:57.140Z,22.10
2024-03-11T20:21:06.585Z,21.00
2024-03-11T20:24:12.102Z,20.80
2024-03-11T20:26:58.429Z,24.10
2024-03-11T20:29:47.871Z,23.10
2024-03-11T20:32:26.822Z,25.60
2024-03-11T20:34:54.517Z,22.40
2024-03-11T20:37:22.222Z,22.80
2024-03-11T20:39:50.124Z,23.90
2024-03-11T20:42:17.966Z,23.70
2024-03-11T20:44:45.897Z,21.70
2024-03-11T20:47:13.582Z,22.90
2024-03-11T20:49:41.258Z,22.90
2024-03-11T20:52:09.782Z,22.20
2024-03-11T20:54:37.829Z,22.30
2024-03-11T20:57:05.665Z,22.10
2024-03-11T20:59:33.361Z,20.90
2024-03-11T21:02:01.121Z,21.20
2024-03-11T21:04:28.951Z,23.40
2024-03-11T21:06:56.711Z,21.80
2024-03-11T21:09:24.373Z,23.70
2024-03-11T21:11:52.045Z,21.20
2024-03-11T21:14:19.755Z,22.40
2024-03-11T21:16:47.419Z,21.00
2024-03-11T21:19:15.207Z,20.10
2024-03-11T21:21:48.998Z,20.90
2024-03-11T21:24:16.596Z,19.80
2024-03-11T21:26:44.302Z,18.90
2024-03-11T21:29:12.027Z,20.00
2024-03-11T21:31:39.681Z,20.50
2024-03-11T21:34:07.534Z,17.70
2024-03-11T21:36:35.439Z,18.20
2024-03-11T21:39:03.219Z,21.40
2024-03-11T21:41:30.852Z,19.90
2024-03-11T21:43:58.505Z,20.20
2024-03-11T21:46:26.285Z,19.20
2024-03-11T21:48:54.019Z,18.80
2024-03-11T21:51:21.726Z,19.40
2024-03-11T21:53:49.385Z,19.90
2024-03-11T21:56:17.026Z,20.00
2024-03-11T21:58:44.651Z,20.70
2024-03-11T22:01:12.342Z,21.50
2024-03-11T22:03:40.150Z,19.10
2024-03-11T22:06:08.098Z,19.10
2024-03-11T22:08:35.869Z,18.80
2024-03-11T22:11:03.586Z,20.40
2024-03-11T22:13:31.259Z,19.90
2024-03-11T22:15:58.940Z,18.80
2024-03-11T22:18:26.736Z,20.10
2024-03-11T22:20:54.597Z,18.90
2024-03-11T22:23:22.507Z,19.40
2024-03-11T22:25:50.116Z,19.90
2024-03-11T22:28:17.828Z,19.70
2024-03-11T22:30:45.560Z,21.80
2024-03-11T22:33:13.391Z,20.20
2024-03-11T22:35:41.118Z,19.30
2024-03-11T22:38:08.771Z,19.90
2024-03-11T22:40:36.552Z,20.20
2024-03-11T22:43:04.319Z,19.90
2024-03-11T22:45:32.198Z,18.80
2024-03-11T22:48:00.098Z,18.20
2024-03-11T22:50:27.906Z,18.60
2024-03-11T22:52:55.595Z,17.40
2024-03-11T22:55:23.218Z,17.80
2024-03-11T22:57:50.903Z,19.70
2024-03-11T23:00:18.740Z,18.40
2024-03-11T23:02:46.328Z,19.60
2024-03-11T23:05:14.076Z,19.10
2024-03-11T23:07:41.840Z,19.20
2024-03-11T23:10:09.581Z,19.40
2024-03-11T23:12:37.367Z,17.80
2024-03-11T23:15:05.456Z,16.20
2024-03-11T23:17:33.351Z,19.90
2024-03-11T23:20:00.976Z,20.40
2024-03-11T23:22:28.665Z,18.20
2024-03-11T23:24:56.446Z,18.80
2024-03-11T23:27:24.173Z,19.60
2024-03-11T23:29:52.302Z,20.30
2024-03-11T23:32:20.098Z,17.70
2024-03-11T23:34:47.714Z,19.60
2024-03-11T23:37:15.411Z,17.60
2024-03-11T23:39:43.935Z,19.70
2024-03-11T23:42:11.680Z,19.10
2024-03-11T23:44:39.326Z,18.30
2024-03-11T23:47:07.316Z,17.40
2024-03-11T23:49:35.076Z,19.90
2024-03-11T23:52:02.732Z,18.60
2024-03-11T23:54:30.366Z,17.60
2024-03-11T23:56:58.071Z,17.90
2024-03-11T23:59:25.763Z,19.10
